Time;durP1;ratioP1;P1;durP2;ratioP2;P2;SDS_P1;SDS_P2;PMS_P1;PMS_P2;Temp;Humidity;BMP_temperature;BMP_pressure;BME280_temperature;BME280_humidity;BME280_pressure;Samples;Min_cycle;Max_cycle;Signal;HPM_P1;HPM_P2
2023/11/28 00:00:17;;;;;;;9.50;6.55;;;-1.80;99.90;;;-144.05;84.02;57118.59;4974647;28;20575;-83
2023/11/28 00:02:43;;;;;;;10.68;7.35;;;;;;;-144.05;84.08;57107.97;4972739;28;20483;-83
2023/11/28 00:05:10;;;;;;;10.52;7.78;;;;;;;-144.05;84.24;57133.44;4974387;28;20411;-82
2023/11/28 00:07:36;;;;;;;9.93;7.90;;;;;;;-144.05;84.22;57129.22;4988898;28;20031;-84
2023/11/28 00:10:06;;;;;;;10.20;7.40;;;;;;;-144.05;84.42;57112.22;4972569;28;20399;-81
2023/11/28 00:12:32;;;;;;;12.88;8.40;;;;;;;-144.05;84.62;57097.34;4973001;28;20447;-82
2023/11/28 00:14:58;;;;;;;11.45;7.90;;;;;;;-144.05;84.51;57103.72;5004049;28;20031;-82
2023/11/28 00:17:25;;;;;;;11.23;7.55;;;;;;;-144.05;84.66;57127.09;4976360;28;20027;-82
2023/11/28 00:19:50;;;;;;;11.30;7.43;;;-2.30;99.90;;;-144.05;84.83;57131.31;4973382;28;20031;-83
2023/11/28 00:22:17;;;;;;;10.38;7.93;;;;;;;-144.05;85.34;57154.69;4973656;28;20035;-81
2023/11/28 00:24:43;;;;;;;11.43;8.05;;;;;;;-144.05;84.86;57122.84;4972345;28;20081;-83
2023/11/28 00:27:10;;;;;;;11.98;7.75;;;;;;;-144.05;85.04;57118.59;4982680;28;20035;-83
2023/11/28 00:29:36;;;;;;;10.50;7.60;;;;;;;-144.05;84.86;57071.84;4972914;28;20407;-80
2023/11/28 00:32:03;;;;;;;11.65;8.10;;;;;;;-144.05;84.24;57131.31;4966565;28;20087;-84
2023/11/28 00:34:29;;;;;;;10.63;7.55;;;;;;;-144.05;84.67;57101.59;4973939;28;20050;-83
2023/11/28 00:36:56;;;;;;;10.25;7.45;;;;;;;-144.05;84.67;57124.97;4971650;28;20034;-81
2023/11/28 00:39:22;;;;;;;10.25;7.60;;;;;;;-144.05;84.44;57103.72;4972401;28;20031;-81
2023/11/28 00:41:49;;;;;;;8.90;6.78;;;;;;;-144.05;84.27;57114.34;5006541;28;20395;-84
2023/11/28 00:44:15;;;;;;;10.07;7.13;;;;;;;-144.05;84.31;57110.09;4986008;28;20023;-82
2023/11/28 00:46:42;;;;;;;10.68;7.28;;;1.00;99.90;;;-144.05;84.84;57112.22;5001565;28;20031;-83
2023/11/28 00:49:13;;;;;;;10.38;6.38;;;-2.20;99.90;;;-144.05;84.77;57137.69;4972273;28;20109;-83
2023/11/28 00:51:45;;;;;;;7.55;5.60;;;1.00;99.90;;;-144.05;84.17;57097.34;4972358;28;20039;-85
2023/11/28 00:54:11;;;;;;;7.30;5.50;;;;;;;-144.05;84.57;57137.69;4971866;28;20027;-85
2023/11/28 00:56:37;;;;;;;7.03;5.50;;;;;;;-144.05;85.00;57133.44;4974860;28;20039;-81
2023/11/28 00:59:04;;;;;;;6.35;4.75;;;;;;;-144.05;85.01;57120.72;4971861;28;20119;-84
2023/11/28 01:01:30;;;;;;;7.07;4.90;;;;;;;-144.05;84.87;57107.97;4972550;28;20046;-80
2023/11/28 01:03:56;;;;;;;5.65;4.68;;;;;;;-144.05;84.28;57116.47;4971645;28;20045;-82
2023/11/28 01:06:22;;;;;;;5.03;4.53;;;;;;;-144.05;84.49;57118.59;4974880;28;20031;-81
2023/11/28 01:08:48;;;;;;;5.32;4.63;;;-2.20;99.90;;;-144.05;84.66;57103.72;4968037;28;20023;-80
2023/11/28 01:11:16;;;;;;;5.32;4.82;;;0.70;99.90;;;-144.05;85.32;57137.69;4974557;28;20092;-82
2023/11/28 01:13:42;;;;;;;4.55;4.00;;;;;;;-144.05;84.59;57105.84;4972628;28;20030;-82
2023/11/28 01:16:11;;;;;;;4.57;3.88;;;1.00;99.90;;;-144.05;84.88;57086.72;4974490;28;20122;-82
2023/11/28 01:18:37;;;;;;;5.03;4.38;;;;;;;-144.05;84.38;57099.47;4993606;28;20488;-82
2023/11/28 01:21:04;;;;;;;5.30;4.07;;;;;;;-144.05;85.12;57141.94;4985513;28;20368;-82
2023/11/28 01:23:31;;;;;;;3.85;3.45;;;;;;;-144.05;84.66;57118.59;4971738;28;20069;-80
2023/11/28 01:25:57;;;;;;;4.00;3.60;;;;;;;-144.05;84.44;57124.97;5000164;28;20073;-83
2023/11/28 01:28:23;;;;;;;4.20;3.80;;;;;;;-144.05;84.11;57107.97;4972370;28;20043;-81
2023/11/28 01:30:49;;;;;;;4.45;4.03;;;;;;;-144.05;84.13;57097.34;5004933;28;20144;-81
2023/11/28 01:33:15;;;;;;;3.72;3.40;;;;;;;-144.05;84.44;57101.59;5005473;28;20030;-83
2023/11/28 01:35:42;;;;;;;4.93;4.35;;;;;;;-144.05;84.13;57131.31;4972925;28;20503;-83
2023/11/28 01:38:08;;;;;;;3.88;3.42;;;;;;;-144.05;84.44;57116.47;4980553;28;20026;-81
2023/11/28 01:40:35;;;;;;;4.15;3.75;;;;;;;-144.05;84.52;57090.97;4980383;28;20614;-81
2023/11/28 01:43:01;;;;;;;5.20;4.20;;;;;;;-144.05;83.98;57124.97;4970876;28;20032;-81
2023/11/28 01:45:28;;;;;;;4.28;3.88;;;;;;;-144.05;83.71;57122.84;4979709;28;20079;-79
2023/11/28 01:47:56;;;;;;;4.65;4.20;;;;;;;-144.05;84.16;57133.44;5002763;28;20413;-81
2023/11/28 01:50:23;;;;;;;4.10;3.70;;;;;;;-144.05;83.69;57114.34;4986735;28;20084;-82
2023/11/28 01:52:50;;;;;;;5.00;4.32;;;;;;;-144.05;83.41;57099.47;4993821;28;20033;-82
2023/11/28 01:55:18;;;;;;;5.18;4.50;;;1.00;99.90;;;-144.05;83.39;57095.22;4984954;28;20035;-83
2023/11/28 01:57:45;;;;;;;5.57;5.07;;;;;;;-144.05;83.72;57122.84;4978009;28;20451;-83
2023/11/28 02:00:12;;;;;;;5.20;4.70;;;;;;;-144.05;83.49;57127.09;4971486;28;20031;-81
2023/11/28 02:02:38;;;;;;;5.50;4.80;;;;;;;-144.05;83.14;57135.56;4973794;28;20060;-80
2023/11/28 02:05:05;;;;;;;5.00;4.50;;;-1.90;99.90;;;-144.05;83.39;57116.47;4964479;28;20100;-82
2023/11/28 02:07:31;;;;;;;5.70;5.10;;;;;;;-144.05;83.59;57103.72;4966364;28;20023;-83
2023/11/28 02:09:58;;;;;;;6.25;5.20;;;1.30;99.90;;;-144.05;83.15;57120.72;4970870;28;20027;-82
2023/11/28 02:12:24;;;;;;;5.93;5.30;;;;;;;-144.05;83.16;57116.47;4989835;28;20031;-79
2023/11/28 02:14:50;;;;;;;5.55;4.68;;;;;;;-144.05;83.51;57120.72;4972039;28;20031;-83
2023/11/28 02:17:16;;;;;;;5.28;4.55;;;;;;;-144.05;83.36;57120.72;4970307;28;20059;-80
2023/11/28 02:19:43;;;;;;;6.68;4.88;;;;;;;-144.05;83.46;57120.72;4970033;28;20114;-83
2023/11/28 02:22:10;;;;;;;5.65;5.00;;;;;;;-144.05;83.36;57097.34;4976261;28;20039;-82
2023/11/28 02:24:41;;;;;;;5.20;4.70;;;0.90;99.90;;;-144.05;82.87;57107.97;5001052;28;20035;-81
2023/11/28 02:27:08;;;;;;;6.93;5.57;;;;;;;-144.05;83.00;57127.09;4969921;28;20027;-80
2023/11/28 02:29:34;;;;;;;6.38;5.70;;;;;;;-144.05;83.61;57090.97;5006900;28;20046;-81
2023/11/28 02:32:00;;;;;;;6.00;5.40;;;;;;;-144.05;83.17;57112.22;4970745;28;20463;-81
2023/11/28 02:34:26;;;;;;;6.40;5.47;;;;;;;-144.05;83.21;57103.72;4971676;28;20041;-82
2023/11/28 02:36:52;;;;;;;6.07;5.45;;;;;;;-144.05;83.13;57093.09;4971055;28;20035;-80
2023/11/28 02:39:19;;;;;;;5.75;4.97;;;;;;;-144.05;82.88;57114.34;4969195;28;20026;-79
2023/11/28 02:41:45;;;;;;;6.47;5.60;;;;;;;-144.05;83.18;57139.81;4970517;28;20065;-81
2023/11/28 02:44:11;;;;;;;6.90;5.82;;;;;;;-144.05;82.62;57116.47;4969875;28;20091;-79
2023/11/28 02:46:38;;;;;;;6.43;5.65;;;;;;;-144.05;82.78;57105.84;4965344;28;21745;-80
2023/11/28 02:49:04;;;;;;;6.97;6.28;;;;;;;-144.05;82.47;57103.72;4969364;28;20050;-79
2023/11/28 02:51:30;;;;;;;6.20;5.28;;;;;;;-144.05;82.89;57127.09;4971115;28;20091;-79
2023/11/28 02:53:56;;;;;;;5.88;5.18;;;;;;;-144.05;82.67;57097.34;4971429;28;20026;-81
2023/11/28 02:56:22;;;;;;;7.25;5.47;;;;;;;-144.05;82.79;57127.09;4964230;28;20039;-78
2023/11/28 02:58:50;;;;;;;7.40;5.28;;;;;;;-144.05;82.81;57127.09;4971400;28;20030;-81
2023/11/28 03:01:17;;;;;;;7.05;5.80;;;;;;;-144.05;82.29;57124.97;4986446;28;20035;-80
2023/11/28 03:03:43;;;;;;;6.70;5.88;;;;;;;-144.05;82.29;57122.84;4970370;28;20120;-82
2023/11/28 03:06:10;;;;;;;7.47;5.80;;;;;;;-144.05;81.64;57116.47;4971026;28;20519;-81
2023/11/28 03:08:36;;;;;;;7.35;6.30;;;;;;;-144.05;82.10;57129.22;4969744;28;20511;-82
2023/11/28 03:11:02;;;;;;;7.20;6.15;;;;;;;-144.05;81.65;57116.47;4977848;28;20064;-79
2023/11/28 03:13:28;;;;;;;7.72;5.70;;;;;;;-144.05;81.26;57124.97;4963668;28;20475;-82
2023/11/28 03:15:54;;;;;;;7.57;6.22;;;;;;;-144.05;81.92;57129.22;4969911;28;20030;-81
2023/11/28 03:18:21;;;;;;;7.35;5.93;;;;;;;-144.05;82.06;57122.84;4974227;28;20507;-81
2023/11/28 03:20:47;;;;;;;8.35;6.90;;;;;;;-144.05;81.12;57122.84;4974256;28;20034;-81
2023/11/28 03:23:13;;;;;;;7.70;5.80;;;;;;;-144.05;81.16;57135.56;4975355;28;20076;-84
2023/11/28 03:25:39;;;;;;;8.57;6.72;;;;;;;-144.05;80.98;57120.72;4974180;28;20402;-83
2023/11/28 03:28:06;;;;;;;9.93;6.63;;;;;;;-144.05;80.61;57129.22;5031517;28;20039;-81
2023/11/28 03:30:32;;;;;;;9.82;6.00;;;;;;;-144.05;81.32;57158.94;4973975;28;20027;-83
2023/11/28 03:32:58;;;;;;;8.38;5.93;;;;;;;-144.05;80.54;57122.84;4973560;28;20502;-84
2023/11/28 03:35:27;;;;;;;7.68;6.32;;;;;;;-144.05;80.63;57101.59;4976950;28;20090;-82
2023/11/28 03:37:53;;;;;;;9.40;6.28;;;;;;;-144.05;80.42;57097.34;4978591;28;20053;-82
2023/11/28 03:40:20;;;;;;;8.10;6.15;;;;;;;-144.05;80.59;57099.47;4974422;28;20035;-80
2023/11/28 03:42:46;;;;;;;7.18;5.82;;;;;;;-144.05;80.64;57124.97;4974381;28;20031;-81
2023/11/28 03:45:15;;;;;;;6.25;5.65;;;;;;;-144.05;80.10;57110.09;4973060;28;20427;-83
2023/11/28 03:47:41;;;;;;;7.00;5.93;;;;;;;-144.05;80.44;57112.22;4999316;28;20028;-83
2023/11/28 03:50:08;;;;;;;8.93;6.13;;;;;;;-144.05;80.85;57095.22;4984298;28;20030;-81
2023/11/28 03:52:34;;;;;;;7.93;5.85;;;;;;;-144.05;80.19;57150.44;4969411;28;20023;-79
2023/11/28 03:55:01;;;;;;;7.25;6.45;;;;;;;-144.05;80.66;57107.97;4968771;28;20035;-83
2023/11/28 03:57:27;;;;;;;7.40;6.13;;;;;;;-144.05;79.65;57135.56;4973275;28;20479;-83
2023/11/28 03:59:53;;;;;;;7.07;6.15;;;;;;;-144.05;80.80;57133.44;4972392;28;20164;-83
2023/11/28 04:02:19;;;;;;;6.95;6.25;;;;;;;-144.05;80.07;57086.72;4972433;28;20441;-83
2023/11/28 04:04:46;;;;;;;7.53;5.90;;;;;;;-144.05;80.24;57101.59;4972619;28;20114;-84
2023/11/28 04:07:12;;;;;;;8.68;6.25;;;;;;;-144.05;80.47;57129.22;5011666;28;20032;-83
2023/11/28 04:09:38;;;;;;;6.70;5.93;;;;;;;-144.05;80.14;57127.09;4973995;28;20039;-83
2023/11/28 04:12:05;;;;;;;8.73;7.10;;;1.10;99.90;;;-144.05;80.15;57105.84;4976385;28;20026;-82
2023/11/28 04:14:32;;;;;;;15.05;8.88;;;;;;;-144.05;79.66;57120.72;4984986;28;20035;-83
2023/11/28 04:16:58;;;;;;;19.48;11.48;;;;;;;-144.05;79.43;57103.72;4972616;28;20038;-83
2023/11/28 04:19:24;;;;;;;12.57;8.27;;;;;;;-144.05;79.79;57135.56;4973270;28;20061;-81
2023/11/28 04:21:50;;;;;;;26.50;12.80;;;1.10;99.90;;;-144.05;79.36;57131.31;4972278;28;20035;-84
2023/11/28 04:24:17;;;;;;;55.08;22.55;;;;;;;-144.05;79.54;57124.97;4978480;28;20488;-83
2023/11/28 04:26:43;;;;;;;26.40;12.80;;;;;;;-144.05;79.92;57107.97;4968846;28;20033;-85
2023/11/28 04:29:09;;;;;;;70.25;26.58;;;;;;;-144.05;80.17;57093.09;4978145;28;20026;-83
2023/11/28 04:31:36;;;;;;;40.03;19.75;;;-2.00;99.90;;;-144.05;79.71;57127.09;5044734;28;20030;-81
2023/11/28 04:34:02;;;;;;;31.48;15.95;;;;;;;-144.05;79.72;57112.22;4970446;28;20513;-82
2023/11/28 04:36:28;;;;;;;36.70;16.92;;;;;;;-144.05;79.99;57127.09;4965644;28;20061;-82
2023/11/28 04:38:55;;;;;;;38.10;19.08;;;;;;;-144.05;79.64;57127.09;4974036;28;20042;-83
2023/11/28 04:41:21;;;;;;;12.60;8.90;;;;;;;-144.05;79.53;57080.34;4973567;28;20031;-81
2023/11/28 04:43:47;;;;;;;13.55;9.57;;;;;;;-144.05;80.17;57124.97;4966269;28;20061;-81
2023/11/28 04:46:13;;;;;;;12.32;9.60;;;;;;;-144.05;79.83;57122.84;4974207;28;20031;-81
2023/11/28 04:48:40;;;;;;;8.98;7.55;;;;;;;-144.05;79.72;57067.59;4988719;28;20035;-81
2023/11/28 04:51:06;;;;;;;10.75;8.95;;;;;;;-144.05;80.03;57110.09;4972618;28;20089;-82
2023/11/28 04:53:33;;;;;;;18.25;11.07;;;;;;;-144.05;79.88;57150.44;4975098;28;20618;-82
2023/11/28 04:55:59;;;;;;;22.00;13.80;;;;;;;-144.05;79.28;57135.56;4976807;28;20073;-81
2023/11/28 04:58:25;;;;;;;13.63;9.30;;;;;;;-144.05;79.79;57114.34;4977504;28;20026;-81
2023/11/28 05:00:52;;;;;;;12.45;8.68;;;;;;;-144.05;80.12;57080.34;4975925;28;20114;-81
2023/11/28 05:03:18;;;;;;;14.75;8.77;;;;;;;-144.05;79.70;57110.09;4978701;28;20488;-79
2023/11/28 05:05:44;;;;;;;17.40;11.40;;;;;;;-144.05;79.94;57095.22;4981798;28;20053;-83
2023/11/28 05:08:11;;;;;;;13.23;8.80;;;;;;;-144.05;79.85;57124.97;4973824;28;20096;-82
2023/11/28 05:10:38;;;;;;;12.02;9.05;;;;;;;-144.05;79.68;57116.47;4977138;28;20113;-82
2023/11/28 05:13:04;;;;;;;11.57;9.32;;;;;;;-144.05;79.07;57099.47;4989599;28;20061;-82
2023/11/28 05:15:31;;;;;;;13.98;10.07;;;;;;;-144.05;79.29;57112.22;4974958;28;20031;-81
2023/11/28 05:17:57;;;;;;;12.23;9.10;;;;;;;-144.05;79.57;57118.59;4973612;28;20069;-80
2023/11/28 05:20:23;;;;;;;13.07;8.68;;;;;;;-144.05;79.05;57133.44;4973784;28;20038;-80
2023/11/28 05:22:50;;;;;;;11.73;8.25;;;;;;;-144.05;78.75;57105.84;4972978;28;20053;-82
2023/11/28 05:25:16;;;;;;;10.00;7.22;;;;;;;-144.05;79.11;57107.97;4974761;28;20035;-80
2023/11/28 05:27:42;;;;;;;11.02;7.50;;;;;;;-144.05;78.51;57129.22;4968798;28;20035;-79
2023/11/28 05:30:09;;;;;;;11.93;8.38;;;-2.00;99.90;;;-144.05;78.57;57133.44;4971249;28;20049;-81
2023/11/28 05:32:35;;;;;;;12.00;7.55;;;;;;;-144.05;78.04;57107.97;4973488;28;20035;-81
2023/11/28 05:35:02;;;;;;;14.10;9.45;;;;;;;-144.05;78.60;57131.31;4973538;28;20545;-81
2023/11/28 05:37:30;;;;;;;18.08;9.85;;;;;;;-144.05;78.46;57129.22;4974004;28;20027;-82
2023/11/28 05:39:58;;;;;;;12.95;8.32;;;;;;;-144.05;78.16;57148.31;5051656;28;20028;-80
2023/11/28 05:42:24;;;;;;;14.98;10.00;;;;;;;-144.05;78.70;57093.09;4976072;28;20039;-81
2023/11/28 05:44:50;;;;;;;16.23;8.98;;;;;;;-144.05;78.46;57086.72;4973954;28;20030;-82
2023/11/28 05:47:18;;;;;;;17.08;9.82;;;;;;;-144.05;78.53;57103.72;5013650;28;20487;-80
2023/11/28 05:49:44;;;;;;;14.52;8.75;;;;;;;-144.05;78.75;57137.69;4973258;28;20027;-80
2023/11/28 05:52:10;;;;;;;10.38;7.15;;;;;;;-144.05;78.17;57116.47;4973884;28;20431;-80
2023/11/28 05:54:37;;;;;;;13.35;8.75;;;;;;;-144.05;78.37;57122.84;4988323;28;20383;-81
2023/11/28 05:57:03;;;;;;;14.38;8.32;;;;;;;-144.05;78.23;57099.47;4973293;28;20027;-78
2023/11/28 05:59:29;;;;;;;12.40;7.32;;;;;;;-144.05;77.98;57127.09;4965855;28;20049;-79
2023/11/28 06:02:00;;;;;;;11.38;8.75;;;1.00;99.90;;;-144.05;77.53;57122.84;4988160;28;20061;-79
2023/11/28 06:04:27;;;;;;;11.20;7.30;;;;;;;-144.05;76.94;57129.22;4971475;28;20031;-79
2023/11/28 06:06:53;;;;;;;14.05;7.78;;;;;;;-144.05;77.27;57114.34;4987763;28;20034;-79
2023/11/28 06:09:19;;;;;;;9.25;7.05;;;;;;;-144.05;76.94;57163.19;4970823;28;20055;-78
2023/11/28 06:11:46;;;;;;;11.32;6.72;;;;;;;-144.05;77.31;57144.06;4988149;28;20027;-82
2023/11/28 06:14:12;;;;;;;10.68;6.35;;;;;;;-144.05;76.71;57110.09;4972221;28;20099;-80
2023/11/28 06:16:38;;;;;;;12.95;7.55;;;;;;;-144.05;76.97;57133.44;4972556;28;20041;-78
2023/11/28 06:19:05;;;;;;;9.68;6.22;;;;;;;-144.05;76.11;57112.22;4972366;28;20595;-80
2023/11/28 06:21:31;;;;;;;14.55;7.07;;;;;;;-144.05;76.22;57127.09;5005515;28;20051;-79
2023/11/28 06:23:57;;;;;;;12.75;6.97;;;;;;;-144.05;75.87;57146.19;4983120;28;20054;-79
2023/11/28 06:26:23;;;;;;;11.18;6.90;;;;;;;-144.05;75.82;57086.72;4977241;28;20027;-79
2023/11/28 06:28:49;;;;;;;13.25;6.60;;;;;;;-144.05;74.87;57120.72;4997353;28;20038;-79
2023/11/28 06:31:16;;;;;;;10.05;6.50;;;;;;;-144.05;74.50;57135.56;4964595;28;20476;-79
2023/11/28 06:33:43;;;;;;;14.60;6.45;;;;;;;-144.05;74.59;57122.84;4972926;28;20027;-81
2023/11/28 06:36:09;;;;;;;9.40;6.80;;;;;;;-144.05;74.31;57107.97;4971102;28;20031;-77
2023/11/28 06:38:36;;;;;;;9.93;5.80;;;;;;;-144.05;74.17;57133.44;4970252;28;20035;-77
2023/11/28 06:41:02;;;;;;;9.85;6.10;;;;;;;-144.05;74.27;57112.22;5009357;28;20052;-76
2023/11/28 06:43:28;;;;;;;22.48;8.95;;;;;;;-144.05;73.82;57114.34;4962197;28;20050;-80
2023/11/28 06:46:00;;;;;;;27.80;11.00;;;0.40;99.90;;;-144.05;73.62;57103.72;4971541;28;20022;-77
2023/11/28 06:48:27;;;;;;;21.67;8.98;;;;;;;-144.05;73.49;57148.31;4972197;28;20137;-77
2023/11/28 06:50:53;;;;;;;13.02;7.18;;;;;;;-144.05;73.91;57124.97;4964531;28;20055;-77
2023/11/28 06:53:20;;;;;;;13.27;7.30;;;;;;;-144.05;73.47;57107.97;4975625;28;20031;-76
2023/11/28 06:55:46;;;;;;;14.02;7.18;;;;;;;-144.05;73.42;57148.31;5001625;28;20040;-78
2023/11/28 06:58:12;;;;;;;14.15;7.03;;;;;;;-144.05;73.78;57133.44;4970083;28;20125;-78
2023/11/28 07:00:38;;;;;;;10.02;6.90;;;;;;;-144.05;74.52;57144.06;4988070;28;20105;-78
2023/11/28 07:03:06;;;;;;;11.05;6.65;;;;;;;-144.05;74.04;57110.09;4971764;28;20037;-78
2023/11/28 07:05:32;;;;;;;9.02;5.40;;;;;;;-144.05;74.35;57107.97;4964875;28;20023;-79
2023/11/28 07:07:58;;;;;;;12.15;6.13;;;;;;;-144.05;74.36;57112.22;4986423;28;20083;-79
2023/11/28 07:10:24;;;;;;;10.73;6.10;;;;;;;-144.05;74.27;57120.72;4972779;28;20074;-79
2023/11/28 07:12:51;;;;;;;9.40;6.07;;;;;;;-144.05;73.74;57086.72;4976560;28;20451;-77
2023/11/28 07:15:17;;;;;;;10.35;6.22;;;;;;;-144.05;73.71;57118.59;4970772;28;20547;-79
2023/11/28 07:17:43;;;;;;;9.35;6.00;;;;;;;-144.05;73.79;57131.31;4972671;28;20037;-79
2023/11/28 07:20:11;;;;;;;7.97;5.43;;;0.60;99.90;;;-144.05;73.57;57137.69;4972030;28;20034;-79
2023/11/28 07:22:38;;;;;;;9.35;5.35;;;;;;;-144.05;73.53;57120.72;4972291;28;20038;-79
2023/11/28 07:25:04;;;;;;;11.27;5.05;;;;;;;-144.05;73.70;57127.09;4981973;28;20026;-79
2023/11/28 07:27:30;;;;;;;9.88;4.97;;;;;;;-144.05;73.22;57139.81;4971199;28;20031;-78
2023/11/28 07:29:57;;;;;;;9.43;5.40;;;;;;;-144.05;73.43;57144.06;4974244;28;20075;-80
2023/11/28 07:32:23;;;;;;;10.27;5.72;;;;;;;-144.05;74.01;57116.47;4986004;28;20062;-80
2023/11/28 07:34:50;;;;;;;10.40;5.55;;;;;;;-144.05;73.74;57127.09;4972808;28;20404;-81
2023/11/28 07:37:16;;;;;;;6.95;4.35;;;;;;;-144.05;73.43;57112.22;4985144;28;20041;-81
2023/11/28 07:39:42;;;;;;;9.60;4.88;;;;;;;-144.05;73.36;57133.44;4972395;28;20026;-80
2023/11/28 07:42:08;;;;;;;10.73;5.32;;;;;;;-144.05;73.48;57127.09;4972593;28;20038;-78
2023/11/28 07:44:35;;;;;;;7.95;4.15;;;;;;;-144.05;73.22;57116.47;4965476;28;20063;-80
2023/11/28 07:47:02;;;;;;;7.30;4.93;;;;;;;-144.05;73.47;57112.22;4972165;28;20027;-78
2023/11/28 07:49:28;;;;;;;8.02;4.45;;;;;;;-144.05;73.45;57116.47;4972368;28;20027;-79
2023/11/28 07:51:54;;;;;;;8.57;4.78;;;;;;;-144.05;73.38;57129.22;4972127;28;20041;-81
2023/11/28 07:54:21;;;;;;;8.10;4.68;;;;;;;-144.05;73.78;57103.72;4971966;28;20066;-79
2023/11/28 07:56:48;;;;;;;8.98;4.53;;;;;;;-144.05;73.35;57099.47;4971379;28;20033;-81
2023/11/28 07:59:14;;;;;;;9.30;4.80;;;;;;;-144.05;73.18;57120.72;4986149;28;20042;-82
2023/11/28 08:01:41;;;;;;;9.10;4.40;;;0.20;99.90;;;-144.05;73.25;57105.84;4972275;28;20023;-80
2023/11/28 08:04:07;;;;;;;7.32;4.28;;;;;;;-144.05;73.20;57110.09;4975751;28;20053;-78
2023/11/28 08:06:34;;;;;;;6.82;4.13;;;;;;;-144.05;73.44;57133.44;4974318;28;20034;-79
2023/11/28 08:09:00;;;;;;;7.13;4.10;;;;;;;-144.05;73.12;57107.97;4988377;28;20031;-79
2023/11/28 08:11:26;;;;;;;8.25;5.25;;;;;;;-144.05;73.10;57116.47;4980245;28;20031;-79
2023/11/28 08:13:53;;;;;;;7.85;4.65;;;;;;;-144.05;72.73;57116.47;4975636;28;20118;-78
2023/11/28 08:16:20;;;;;;;8.02;4.30;;;;;;;-144.05;72.48;57118.59;4975584;28;20037;-79
2023/11/28 08:18:47;;;;;;;8.18;4.78;;;;;;;-144.05;72.11;57131.31;4988353;28;20413;-80
2023/11/28 08:21:13;;;;;;;6.55;3.63;;;;;;;-144.05;71.79;57124.97;4973958;28;20042;-78
2023/11/28 08:23:39;;;;;;;12.95;4.43;;;;;;;-144.05;71.15;57107.97;4988611;28;20034;-79
2023/11/28 08:26:06;;;;;;;6.70;3.80;;;1.10;99.90;;;-144.05;70.03;57107.97;4989160;28;20037;-77
2023/11/28 08:28:32;;;;;;;7.40;3.50;;;;;;;-144.05;69.68;57114.34;4974322;28;20038;-79
2023/11/28 08:30:58;;;;;;;9.77;4.15;;;;;;;-144.05;69.68;57095.22;4988759;28;20027;-79
2023/11/28 08:33:24;;;;;;;8.05;3.85;;;;;;;-144.05;69.00;57112.22;4976004;28;20239;-78
2023/11/28 08:35:51;;;;;;;5.78;3.85;;;;;;;-144.05;68.71;57054.88;4984991;28;20057;-79
2023/11/28 08:38:17;;;;;;;5.45;3.70;;;;;;;-144.05;68.28;57082.47;5006825;28;20033;-80
2023/11/28 08:40:43;;;;;;;5.97;3.55;;;;;;;-144.05;68.55;57129.22;4977164;28;20510;-79
2023/11/28 08:43:10;;;;;;;5.25;3.42;;;;;;;-144.05;68.37;57071.84;4977229;28;20035;-79
2023/11/28 08:45:36;;;;;;;4.65;3.03;;;;;;;-144.05;68.17;57122.84;4977567;28;20541;-77
2023/11/28 08:48:02;;;;;;;8.52;3.30;;;;;;;-144.05;68.12;57103.72;4977544;28;20538;-78
2023/11/28 08:50:28;;;;;;;8.05;3.88;;;;;;;-144.05;68.52;57090.97;4976027;28;20027;-78
2023/11/28 08:52:55;;;;;;;4.95;3.20;;;;;;;-144.05;67.73;57082.47;4977299;28;20077;-80
2023/11/28 08:55:21;;;;;;;6.57;3.05;;;;;;;-144.05;68.04;57103.72;4977637;28;20058;-79
2023/11/28 08:57:48;;;;;;;4.90;3.17;;;;;;;-144.05;67.94;57105.84;4976768;28;20113;-78
2023/11/28 09:00:15;;;;;;;5.32;3.30;;;;;;;-144.05;68.24;57088.84;4970052;28;20035;-76
2023/11/28 09:02:43;;;;;;;6.18;2.85;;;;;;;-144.05;68.28;57129.22;5013021;28;20077;-79
2023/11/28 09:05:09;;;;;;;6.18;3.22;;;;;;;-144.05;68.47;57112.22;4990802;28;20118;-79
2023/11/28 09:07:37;;;;;;;5.35;3.35;;;;;;;-144.05;69.65;57101.59;4974214;28;20122;-78
2023/11/28 09:10:03;;;;;;;5.25;3.42;;;;;;;-144.05;69.06;57103.72;4968797;28;20045;-78
2023/11/28 09:12:30;;;;;;;5.88;3.03;;;;;;;-144.05;69.39;57107.97;5011767;28;20031;-81
2023/11/28 09:14:56;;;;;;;5.10;3.50;;;;;;;-144.05;69.65;57112.22;4974563;28;20108;-78
2023/11/28 09:17:22;;;;;;;6.30;3.78;;;;;;;-144.05;69.09;57122.84;4975432;28;20043;-76
2023/11/28 09:19:48;;;;;;;6.10;3.40;;;;;;;-144.05;68.76;57131.31;4994730;28;20027;-78
2023/11/28 09:22:15;;;;;;;4.72;3.28;;;;;;;-144.05;68.67;57118.59;4979848;28;20035;-79
2023/11/28 09:24:41;;;;;;;6.25;3.97;;;;;;;-144.05;68.59;57137.69;4989716;28;20027;-77
2023/11/28 09:27:08;;;;;;;8.85;4.30;;;;;;;-144.05;68.09;57097.34;4978277;28;20480;-79
2023/11/28 09:29:37;;;;;;;9.52;4.32;;;1.40;99.90;;;-144.05;67.46;57127.09;4979206;28;20415;-80
2023/11/28 09:32:04;;;;;;;5.40;3.55;;;;;;;-144.05;67.60;57112.22;4981545;28;20130;-78
2023/11/28 09:34:32;;;;;;;5.72;3.92;;;1.30;99.90;;;-144.05;67.24;57124.97;5008348;28;20128;-78
2023/11/28 09:36:58;;;;;;;8.15;3.22;;;;;;;-144.05;67.29;57114.34;4966017;28;20053;-79
2023/11/28 09:39:26;;;;;;;6.63;3.45;;;;;;;-144.05;66.46;57101.59;4982660;28;20038;-81
2023/11/28 09:41:52;;;;;;;3.42;2.83;;;;;;;-144.05;65.80;57105.84;5007025;28;20133;-78
2023/11/28 09:44:25;;;;;;;5.38;2.92;;;;;;;-144.05;66.24;57122.84;4991680;28;20500;-78
2023/11/28 09:46:56;;;;;;;4.15;3.00;;;1.60;99.90;;;-144.05;66.59;57114.34;4974676;28;20230;-78
2023/11/28 09:49:26;;;;;;;5.10;2.95;;;1.10;99.90;;;-144.05;66.22;57103.72;4975542;28;20061;-78
2023/11/28 09:51:58;;;;;;;4.95;2.85;;;1.20;99.90;;;-144.05;66.43;57093.09;4974454;28;20399;-79
2023/11/28 09:54:26;;;;;;;7.13;3.58;;;;;;;-144.05;65.46;57120.72;4982286;28;20043;-78
2023/11/28 09:56:54;;;;;;;4.25;2.50;;;1.70;99.90;;;-144.05;65.24;57118.59;4975577;28;20057;-79
2023/11/28 09:59:25;;;;;;;4.55;3.45;;;1.80;99.90;;;-144.05;65.14;57101.59;4986363;28;20054;-82
2023/11/28 10:01:52;;;;;;;5.63;2.88;;;1.80;99.90;;;-144.05;65.17;57103.72;4987338;28;20034;-77
2023/11/28 10:04:21;;;;;;;4.38;2.95;;;;;;;-144.05;65.44;57095.22;4980740;28;20037;-79
2023/11/28 10:06:50;;;;;;;5.65;3.67;;;;;;;-144.05;66.05;57086.72;4983098;28;20084;-77
2023/11/28 10:09:16;;;;;;;6.32;3.08;;;-1.70;99.90;;;-144.05;65.73;57097.34;4983141;28;20042;-79
2023/11/28 10:11:43;;;;;;;5.25;3.17;;;2.00;99.90;;;-144.05;66.06;57090.97;4980029;28;20034;-79
2023/11/28 10:14:10;;;;;;;5.20;3.13;;;;;;;-144.05;65.86;57084.59;5057818;28;20052;-80
2023/11/28 10:16:49;;;;;;;7.53;3.00;;;1.90;99.90;;;-144.05;65.83;57103.72;5008994;28;20035;-78
2023/11/28 10:19:15;;;;;;;5.68;2.78;;;;;;;-144.05;65.44;57129.22;4975015;28;20023;-79
2023/11/28 10:21:42;;;;;;;6.70;3.35;;;;;;;-144.05;66.09;57095.22;4968173;28;20418;-78
2023/11/28 10:24:09;;;;;;;4.45;2.95;;;-1.70;99.90;;;-144.05;65.48;57080.34;4968880;28;20500;-79
2023/11/28 10:26:37;;;;;;;5.18;3.05;;;-0.80;99.90;;;-144.05;66.22;57105.84;5008211;28;20118;-78
2023/11/28 10:29:05;;;;;;;8.18;3.58;;;;;;;-144.05;66.03;57090.97;4973819;28;20040;-78
2023/11/28 10:31:40;;;;;;;5.15;3.38;;;1.90;99.90;;;-144.05;65.68;57084.59;5058259;28;20031;-77
2023/11/28 10:34:10;;;;;;;4.68;3.40;;;1.40;99.90;;;-144.05;65.63;57101.59;5008242;28;20027;-78
2023/11/28 10:36:44;;;;;;;6.85;3.70;;;1.80;99.90;;;-144.05;66.36;57090.97;4974502;28;20027;-78
2023/11/28 10:39:12;;;;;;;4.82;3.20;;;1.70;99.90;;;-144.05;66.59;57114.34;4973804;28;20045;-77
2023/11/28 10:41:40;;;;;;;4.93;3.15;;;-1.00;99.90;;;-144.05;66.29;57095.22;4975841;28;20023;-79
2023/11/28 10:44:07;;;;;;;6.63;3.45;;;;;;;-144.05;66.78;57116.47;4985983;28;20018;-77
2023/11/28 10:46:37;;;;;;;6.00;3.70;;;2.90;99.90;;;-144.05;66.85;57071.84;4973559;28;20080;-78
2023/11/28 10:49:05;;;;;;;6.60;4.68;;;;;;;-144.05;66.80;57082.47;4973062;28;20030;-78
2023/11/28 10:51:34;;;;;;;5.88;4.05;;;-1.20;99.90;;;-144.05;66.90;57101.59;4971955;28;20487;-79
2023/11/28 10:54:11;;;;;;;8.48;4.30;;;1.80;99.90;;;-144.05;67.02;57110.09;4972472;28;20026;-77
2023/11/28 10:56:49;;;;;;;5.20;3.65;;;;;;;-144.05;66.54;57103.72;4972102;28;20443;-77
2023/11/28 10:59:36;;;;;;;5.03;3.78;;;1.70;99.90;;;-144.05;66.92;57084.59;4991816;28;20045;-79